Time;durP1;ratioP1;P1;durP2;ratioP2;P2;SDS_P1;SDS_P2;PMS_P1;PMS_P2;Temp;Humidity;BMP_temperature;BMP_pressure;BME280_temperature;BME280_humidity;BME280_pressure;Samples;Min_cycle;Max_cycle;Signal;HPM_P1;HPM_P2
2021/10/07 00:02:21;;;;;;;577.53;542.73;;;11.90;99.90;;;;;;5092641;28;20458;-91
2021/10/07 00:04:49;;;;;;;570.57;537.37;;;11.90;99.90;;;;;;5082196;28;20457;-89
2021/10/07 00:07:16;;;;;;;556.70;524.13;;;12.00;99.90;;;;;;5072903;28;20477;-84
2021/10/07 00:09:43;;;;;;;559.43;527.10;;;11.90;99.90;;;;;;5073229;28;20457;-88
2021/10/07 00:12:10;;;;;;;541.10;509.97;;;12.00;99.90;;;;;;5073373;28;20486;-89
2021/10/07 00:14:37;;;;;;;540.37;509.53;;;12.00;99.90;;;;;;5072817;28;20461;-89
2021/10/07 00:17:04;;;;;;;540.40;508.47;;;12.10;99.90;;;;;;5076811;28;20965;-90
2021/10/07 00:19:31;;;;;;;530.40;499.87;;;12.10;99.90;;;;;;5076471;28;20548;-89
2021/10/07 00:21:59;;;;;;;522.23;492.43;;;12.10;99.90;;;;;;5077440;28;20463;-91
2021/10/07 00:24:26;;;;;;;511.23;482.53;;;12.20;99.90;;;;;;5076549;28;20926;-89
2021/10/07 00:26:53;;;;;;;511.90;481.97;;;12.20;99.90;;;;;;5076017;28;20865;-89
2021/10/07 00:32:43;;;;;;;487.63;459.37;;;12.20;99.90;;;;;;5144062;27;20533;-91
2021/10/07 00:40:35;;;;;;;496.37;466.43;;;12.30;99.90;;;;;;5112950;28;20447;-91
2021/10/07 00:43:02;;;;;;;478.47;451.10;;;12.20;99.90;;;;;;5112375;28;20449;-87
2021/10/07 00:45:29;;;;;;;476.43;448.23;;;12.30;99.90;;;;;;5111813;28;20807;-90
2021/10/07 00:47:57;;;;;;;479.83;451.87;;;12.20;99.90;;;;;;5111787;28;20994;-89
2021/10/07 00:50:24;;;;;;;474.40;445.00;;;12.20;99.90;;;;;;5110993;28;20956;-88
2021/10/07 00:52:51;;;;;;;476.97;448.57;;;12.20;99.90;;;;;;5110947;28;20480;-90
2021/10/07 00:55:18;;;;;;;469.30;442.10;;;12.30;99.90;;;;;;5111444;28;20539;-87
2021/10/07 00:57:45;;;;;;;475.37;447.67;;;12.20;99.90;;;;;;5111257;28;20477;-89
2021/10/07 01:00:12;;;;;;;478.97;450.63;;;12.30;99.90;;;;;;5109741;28;20449;-88
2021/10/07 01:02:39;;;;;;;480.20;451.37;;;12.30;99.90;;;;;;5111194;28;20555;-87
2021/10/07 01:05:08;;;;;;;466.93;439.77;;;12.30;99.90;;;;;;5118291;28;20947;-91
2021/10/07 01:07:35;;;;;;;482.53;454.53;;;12.30;99.90;;;;;;5132434;28;20542;-85
2021/10/07 01:10:02;;;;;;;474.50;446.87;;;12.30;99.90;;;;;;5138370;28;20483;-87
2021/10/07 01:12:29;;;;;;;473.23;444.03;;;12.20;99.90;;;;;;5135689;28;20483;-89
2021/10/07 01:14:58;;;;;;;471.23;442.97;;;12.40;99.90;;;;;;5134297;28;20448;-91
2021/10/07 01:17:27;;;;;;;473.57;444.90;;;12.40;99.90;;;;;;5133191;28;20444;-85
2021/10/07 01:19:58;;;;;;;463.37;436.60;;;12.40;99.90;;;;;;5134414;28;20480;-89
2021/10/07 01:22:26;;;;;;;470.03;440.27;;;12.40;99.90;;;;;;5133780;27;20455;-86
2021/10/07 01:24:53;;;;;;;475.07;445.17;;;12.30;99.90;;;;;;5134291;28;20444;-86
2021/10/07 01:27:23;;;;;;;478.87;449.77;;;12.40;99.90;;;;;;5134058;28;20547;-87
2021/10/07 01:29:52;;;;;;;479.67;449.57;;;12.30;99.90;;;;;;5132529;27;21032;-89
2021/10/07 01:32:19;;;;;;;478.33;450.00;;;12.40;99.90;;;;;;5132754;28;20487;-88
2021/10/07 01:34:46;;;;;;;487.83;457.87;;;12.30;99.90;;;;;;5133418;28;20458;-87
2021/10/07 01:37:14;;;;;;;487.70;457.53;;;12.40;99.90;;;;;;5133588;28;20459;-88
2021/10/07 01:39:41;;;;;;;492.03;461.83;;;12.30;99.90;;;;;;5132411;28;20458;-84
2021/10/07 01:42:08;;;;;;;483.13;454.03;;;12.40;99.90;;;;;;5128716;28;20816;-89
2021/10/07 01:44:35;;;;;;;501.53;470.43;;;12.30;99.90;;;;;;5084580;28;20484;-90
2021/10/07 01:47:02;;;;;;;503.17;471.17;;;12.40;99.90;;;;;;5119100;28;20807;-85
2021/10/07 01:49:29;;;;;;;498.23;468.37;;;12.40;99.90;;;;;;5120029;28;20452;-85
2021/10/07 01:51:56;;;;;;;524.27;490.77;;;12.30;99.90;;;;;;5118532;28;20494;-89
2021/10/07 01:54:24;;;;;;;523.27;488.57;;;12.40;99.90;;;;;;5118846;28;20528;-87
2021/10/07 01:56:51;;;;;;;539.30;506.10;;;12.30;99.90;;;;;;5119368;28;20484;-85
2021/10/07 01:59:18;;;;;;;535.97;501.00;;;12.30;99.90;;;;;;5118417;28;21022;-86
2021/10/07 02:01:45;;;;;;;546.43;509.83;;;12.40;99.90;;;;;;5116752;28;20543;-84
2021/10/07 02:04:11;;;;;;;531.43;495.90;;;12.30;99.90;;;;;;5110199;28;20537;-85
2021/10/07 02:06:38;;;;;;;522.77;490.03;;;12.40;99.90;;;;;;5095645;28;20493;-87
2021/10/07 02:09:06;;;;;;;551.07;513.37;;;12.30;99.90;;;;;;5098592;28;20533;-90
2021/10/07 02:11:35;;;;;;;553.00;517.20;;;12.30;99.90;;;;;;5100901;28;20573;-89
2021/10/07 02:14:02;;;;;;;554.67;517.07;;;12.30;99.90;;;;;;5101485;28;20541;-84
2021/10/07 02:16:30;;;;;;;550.30;514.50;;;12.40;99.90;;;;;;5100803;28;20461;-85
2021/10/07 02:18:57;;;;;;;549.53;512.23;;;12.30;99.90;;;;;;5099978;28;20537;-88
2021/10/07 02:21:24;;;;;;;568.30;528.73;;;12.30;99.90;;;;;;5099377;28;20484;-90
2021/10/07 02:23:51;;;;;;;566.23;526.63;;;12.20;99.90;;;;;;5097363;28;20455;-85
2021/10/07 02:26:18;;;;;;;572.40;530.40;;;12.30;99.90;;;;;;5098543;28;20464;-89
2021/10/07 02:28:46;;;;;;;583.33;542.20;;;12.30;99.90;;;;;;5100306;28;20456;-91
2021/10/07 02:31:13;;;;;;;582.00;540.27;;;12.20;99.90;;;;;;5099602;28;21042;-87
2021/10/07 02:33:40;;;;;;;577.77;534.67;;;12.20;99.90;;;;;;5098377;28;20450;-82
2021/10/07 02:36:07;;;;;;;583.67;540.67;;;12.20;99.90;;;;;;5100519;28;20899;-87
2021/10/07 02:38:34;;;;;;;570.07;527.97;;;12.10;99.90;;;;;;5099071;28;20461;-91
2021/10/07 02:41:01;;;;;;;565.43;525.03;;;12.20;99.90;;;;;;5098201;28;20466;-85
2021/10/07 02:43:28;;;;;;;580.20;532.87;;;12.20;99.90;;;;;;5097746;28;20541;-89
2021/10/07 02:45:56;;;;;;;588.70;542.17;;;12.20;99.90;;;;;;5096077;28;20446;-87
2021/10/07 02:48:23;;;;;;;576.13;531.13;;;12.20;99.90;;;;;;5096679;28;20453;-86
2021/10/07 02:50:50;;;;;;;583.50;537.80;;;12.20;99.90;;;;;;5097892;28;20532;-88
2021/10/07 02:53:17;;;;;;;579.20;532.13;;;12.20;99.90;;;;;;5097786;28;20572;-90
2021/10/07 02:55:43;;;;;;;580.53;534.87;;;12.20;99.90;;;;;;5095004;28;20445;-90
2021/10/07 02:58:10;;;;;;;586.20;538.53;;;12.10;99.90;;;;;;5095926;28;20484;-90
2021/10/07 03:00:37;;;;;;;590.30;540.83;;;12.20;99.90;;;;;;5095850;28;20462;-91
2021/10/07 03:03:05;;;;;;;604.83;556.43;;;12.20;99.90;;;;;;5096982;28;20556;-87
2021/10/07 03:05:34;;;;;;;596.83;547.53;;;12.20;99.90;;;;;;5097413;28;20541;-84
2021/10/07 03:08:01;;;;;;;598.60;548.17;;;12.20;99.90;;;;;;5097658;28;20446;-85
2021/10/07 03:10:28;;;;;;;599.93;550.90;;;12.10;99.90;;;;;;5097937;28;20489;-83
2021/10/07 03:12:55;;;;;;;616.50;564.60;;;12.20;99.90;;;;;;5097866;28;20516;-86
2021/10/07 03:15:22;;;;;;;609.77;559.97;;;12.20;99.90;;;;;;5098809;28;20874;-84
2021/10/07 03:17:49;;;;;;;607.53;558.57;;;12.20;99.90;;;;;;5097304;28;20556;-83
2021/10/07 03:20:17;;;;;;;598.27;550.43;;;12.10;99.90;;;;;;5096913;28;20995;-91
2021/10/07 03:22:44;;;;;;;617.43;565.97;;;12.20;99.90;;;;;;5097018;28;20525;-90
2021/10/07 03:25:12;;;;;;;617.73;568.70;;;12.20;99.90;;;;;;5095899;28;20525;-87
2021/10/07 03:27:40;;;;;;;619.17;569.30;;;12.10;99.90;;;;;;5095821;28;20430;-85
2021/10/07 03:30:08;;;;;;;622.80;571.77;;;12.30;99.90;;;;;;5098780;28;20480;-85
2021/10/07 03:32:35;;;;;;;630.77;578.77;;;12.20;99.90;;;;;;5094337;28;20485;-88
2021/10/07 03:35:02;;;;;;;618.33;568.77;;;12.30;99.90;;;;;;5098195;28;20537;-91
2021/10/07 03:37:31;;;;;;;608.53;558.90;;;12.20;99.90;;;;;;5097138;28;20857;-90
2021/10/07 03:39:57;;;;;;;600.83;550.37;;;12.20;99.90;;;;;;5099887;28;20511;-87
2021/10/07 03:42:24;;;;;;;604.97;551.27;;;12.20;99.90;;;;;;5100113;28;20526;-89
2021/10/07 03:44:51;;;;;;;603.57;548.40;;;12.20;99.90;;;;;;5097334;28;20540;-90
2021/10/07 03:47:18;;;;;;;607.30;554.17;;;12.20;99.90;;;;;;5096717;28;20460;-86
2021/10/07 03:49:45;;;;;;;594.97;543.30;;;12.30;99.90;;;;;;5096519;28;20536;-89
2021/10/07 03:52:12;;;;;;;611.87;555.77;;;12.30;99.90;;;;;;5095882;28;20566;-85
2021/10/07 03:54:40;;;;;;;604.40;549.73;;;12.20;99.90;;;;;;5094484;28;20627;-88
2021/10/07 03:57:07;;;;;;;600.00;546.33;;;12.20;99.90;;;;;;5093616;28;20544;-89
2021/10/07 03:59:34;;;;;;;586.87;537.00;;;12.20;99.90;;;;;;5094337;28;20485;-89
2021/10/07 04:02:00;;;;;;;571.67;523.00;;;12.20;99.90;;;;;;5094989;28;20524;-92
2021/10/07 04:04:27;;;;;;;592.53;538.63;;;12.20;99.90;;;;;;5097220;28;20806;-89
2021/10/07 04:06:54;;;;;;;585.07;535.17;;;12.20;99.90;;;;;;5114642;28;20547;-87
2021/10/07 04:09:21;;;;;;;580.43;529.37;;;12.30;99.90;;;;;;5114143;28;20484;-88
2021/10/07 04:11:49;;;;;;;582.67;530.70;;;12.20;99.90;;;;;;5114385;28;20457;-84
2021/10/07 04:14:16;;;;;;;582.93;530.27;;;12.30;99.90;;;;;;5116272;28;20463;-84
2021/10/07 04:16:43;;;;;;;578.40;524.93;;;12.20;99.90;;;;;;5118789;28;20800;-90
2021/10/07 04:19:10;;;;;;;585.63;531.33;;;12.30;99.90;;;;;;5121954;28;20445;-85
2021/10/07 04:21:39;;;;;;;578.63;526.73;;;12.30;99.90;;;;;;5119441;28;20505;-91
2021/10/07 04:24:06;;;;;;;568.87;517.63;;;12.20;99.90;;;;;;5113642;28;20452;-89
2021/10/07 04:26:33;;;;;;;572.50;518.77;;;12.20;99.90;;;;;;5113884;28;20444;-89
2021/10/07 04:29:01;;;;;;;562.50;513.93;;;12.20;99.90;;;;;;5105659;28;20976;-89
2021/10/07 04:31:28;;;;;;;568.03;516.63;;;12.20;99.90;;;;;;5091802;28;20892;-86
2021/10/07 04:33:57;;;;;;;564.73;517.57;;;12.20;99.90;;;;;;5092928;28;20545;-86
2021/10/07 04:36:24;;;;;;;558.37;509.23;;;12.20;99.90;;;;;;5093197;28;20536;-87
2021/10/07 04:38:51;;;;;;;556.87;506.67;;;12.40;99.90;;;;;;5092759;28;20540;-86
2021/10/07 04:41:21;;;;;;;552.53;506.17;;;12.20;99.90;;;;;;5092924;28;20510;-85
2021/10/07 04:43:48;;;;;;;551.83;503.03;;;12.20;99.90;;;;;;5093113;28;20453;-87
2021/10/07 04:46:18;;;;;;;563.57;515.60;;;12.20;99.90;;;;;;5092014;28;20460;-86
2021/10/07 04:48:45;;;;;;;554.47;505.97;;;12.10;99.90;;;;;;5093070;28;20449;-86
2021/10/07 04:51:12;;;;;;;548.50;501.27;;;12.20;99.90;;;;;;5092691;28;20478;-86
2021/10/07 04:53:39;;;;;;;538.57;492.07;;;12.10;99.90;;;;;;5092587;28;20485;-86
2021/10/07 04:56:06;;;;;;;536.87;492.47;;;12.10;99.90;;;;;;5092762;28;20488;-89
2021/10/07 04:58:33;;;;;;;534.77;490.37;;;12.20;99.90;;;;;;5092788;28;20453;-89
2021/10/07 05:01:00;;;;;;;526.70;485.17;;;12.10;99.90;;;;;;5092859;28;20473;-92
2021/10/07 05:03:29;;;;;;;520.00;478.97;;;12.10;99.90;;;;;;5093048;28;20459;-88
2021/10/07 05:05:56;;;;;;;514.47;474.00;;;12.10;99.90;;;;;;5072711;28;20540;-87
2021/10/07 05:08:22;;;;;;;521.60;482.10;;;12.10;99.90;;;;;;5072309;28;20997;-86
2021/10/07 05:10:49;;;;;;;523.27;482.77;;;12.10;99.90;;;;;;5072601;28;20993;-86
2021/10/07 05:13:16;;;;;;;523.23;483.93;;;12.00;99.90;;;;;;5072317;28;21064;-88
2021/10/07 05:15:43;;;;;;;526.90;485.90;;;12.10;99.90;;;;;;5071460;28;20466;-88
2021/10/07 05:18:10;;;;;;;525.30;484.80;;;11.90;99.90;;;;;;5074013;28;20493;-87
2021/10/07 05:20:38;;;;;;;534.73;493.50;;;12.00;99.90;;;;;;5077160;28;20529;-79
2021/10/07 05:23:05;;;;;;;518.80;480.20;;;11.90;99.90;;;;;;5076000;28;20450;-87
2021/10/07 05:25:32;;;;;;;522.97;483.97;;;12.00;99.90;;;;;;5075955;28;20461;-87
2021/10/07 05:27:59;;;;;;;521.53;481.03;;;11.90;99.90;;;;;;5057464;28;20462;-83
2021/10/07 05:30:28;;;;;;;531.63;490.97;;;12.10;99.90;;;;;;5075842;28;20458;-89
2021/10/07 05:32:55;;;;;;;520.80;479.43;;;11.90;99.90;;;;;;5077732;28;20478;-86
2021/10/07 05:35:22;;;;;;;505.87;468.07;;;12.00;99.90;;;;;;5075789;28;20461;-87
2021/10/07 05:37:50;;;;;;;502.17;463.83;;;12.00;99.90;;;;;;5075707;28;20490;-88
2021/10/07 05:40:17;;;;;;;498.10;460.77;;;11.90;99.90;;;;;;5075923;28;20549;-86
2021/10/07 05:42:44;;;;;;;511.87;469.73;;;12.00;99.90;;;;;;5086176;28;20453;-87
2021/10/07 05:45:11;;;;;;;508.17;470.37;;;12.00;99.90;;;;;;5095064;28;20449;-85
2021/10/07 05:47:39;;;;;;;490.67;454.43;;;12.00;99.90;;;;;;5096208;28;20449;-86
2021/10/07 05:50:07;;;;;;;499.03;460.03;;;12.00;99.90;;;;;;5097517;28;20529;-88
2021/10/07 05:52:34;;;;;;;493.30;454.57;;;12.00;99.90;;;;;;5097909;28;20487;-86
2021/10/07 05:55:07;;;;;;;485.97;449.57;;;12.00;99.90;;;;;;5098261;28;20481;-91
2021/10/07 05:57:34;;;;;;;482.40;445.40;;;12.00;99.90;;;;;;5096532;28;20532;-89
2021/10/07 06:00:01;;;;;;;481.83;445.57;;;12.00;99.90;;;;;;5098690;28;20548;-89
2021/10/07 06:02:27;;;;;;;483.87;448.07;;;12.00;99.90;;;;;;5097728;28;20492;-89
2021/10/07 06:04:54;;;;;;;488.03;451.90;;;11.90;99.90;;;;;;5096016;28;20449;-86
2021/10/07 06:07:21;;;;;;;497.27;460.70;;;11.80;99.90;;;;;;5095764;28;20450;-88
2021/10/07 06:09:48;;;;;;;491.57;456.57;;;11.90;99.90;;;;;;5095512;28;20799;-90
2021/10/07 06:12:16;;;;;;;492.67;457.00;;;11.90;99.90;;;;;;5095673;28;20556;-85
2021/10/07 06:14:43;;;;;;;476.67;443.87;;;11.90;99.90;;;;;;5094153;28;20487;-86
2021/10/07 06:17:13;;;;;;;488.90;454.80;;;11.90;99.90;;;;;;5095214;28;20462;-85
2021/10/07 06:19:41;;;;;;;482.87;449.03;;;12.00;99.90;;;;;;5095913;28;20870;-89
2021/10/07 06:22:09;;;;;;;474.00;441.70;;;12.00;99.90;;;;;;5097950;28;20963;-85
2021/10/07 06:24:37;;;;;;;472.67;439.77;;;12.00;99.90;;;;;;5095862;28;20472;-87
2021/10/07 06:27:04;;;;;;;470.00;435.67;;;12.10;99.90;;;;;;5095435;28;20545;-85
2021/10/07 06:29:32;;;;;;;467.73;435.13;;;12.00;99.90;;;;;;5093640;28;20541;-88
2021/10/07 06:31:59;;;;;;;459.10;426.83;;;12.00;99.90;;;;;;5095406;28;20512;-87
2021/10/07 06:34:28;;;;;;;453.13;421.60;;;12.10;99.90;;;;;;5095337;28;20578;-87
2021/10/07 06:36:55;;;;;;;445.93;414.07;;;12.00;99.90;;;;;;5095286;28;20544;-90
2021/10/07 06:39:21;;;;;;;439.30;409.07;;;11.90;99.90;;;;;;5095080;28;20532;-88
2021/10/07 06:41:49;;;;;;;444.90;415.10;;;12.00;99.90;;;;;;5094041;28;20488;-88
2021/10/07 06:44:16;;;;;;;394.97;369.10;;;12.00;99.90;;;;;;5093122;28;20227;-86
2021/10/07 06:46:44;;;;;;;403.47;378.40;;;11.90;99.90;;;;;;5094974;28;20582;-86
2021/10/07 06:49:11;;;;;;;398.37;372.57;;;11.80;99.90;;;;;;5094690;28;20544;-86
2021/10/07 06:51:38;;;;;;;428.73;401.40;;;11.80;99.90;;;;;;5094798;28;20457;-85
2021/10/07 06:54:05;;;;;;;420.97;393.13;;;11.80;99.90;;;;;;5094576;28;20576;-86
2021/10/07 06:56:32;;;;;;;440.13;411.20;;;11.60;99.90;;;;;;5094395;28;20544;-85
2021/10/07 06:58:59;;;;;;;463.63;433.13;;;11.60;99.90;;;;;;5094550;28;20449;-86
2021/10/07 07:01:28;;;;;;;472.90;442.00;;;11.80;99.90;;;;;;5092812;28;20474;-87
2021/10/07 07:03:58;;;;;;;472.80;440.70;;;11.70;99.90;;;;;;5094349;28;20548;-86
2021/10/07 07:06:26;;;;;;;477.63;446.33;;;11.70;99.90;;;;;;5094018;28;20454;-86
2021/10/07 07:08:53;;;;;;;505.17;471.07;;;11.80;99.90;;;;;;5093875;28;20459;-84
2021/10/07 07:11:24;;;;;;;529.77;491.27;;;11.80;99.90;;;;;;5094013;28;20485;-84
2021/10/07 07:13:51;;;;;;;526.37;489.07;;;11.80;99.90;;;;;;5094145;28;20489;-85
2021/10/07 07:16:18;;;;;;;495.17;460.47;;;11.90;99.90;;;;;;5092936;28;20503;-84
2021/10/07 07:18:45;;;;;;;509.60;475.03;;;11.90;99.90;;;;;;5093934;28;20548;-82
2021/10/07 07:21:14;;;;;;;487.07;455.97;;;11.90;99.90;;;;;;5093911;28;20490;-85
2021/10/07 07:23:41;;;;;;;499.83;466.23;;;12.00;99.90;;;;;;5093834;28;20863;-83
2021/10/07 07:26:14;;;;;;;481.73;451.27;;;12.00;99.90;;;;;;5093910;28;20549;-85
2021/10/07 07:28:41;;;;;;;465.07;435.67;;;12.00;99.90;;;;;;5094102;28;20453;-86
2021/10/07 07:31:08;;;;;;;487.87;455.67;;;12.00;99.90;;;;;;5092626;28;20576;-82
2021/10/07 07:33:35;;;;;;;509.00;476.70;;;12.10;99.90;;;;;;5093688;28;21015;-84
2021/10/07 07:36:01;;;;;;;501.57;470.07;;;12.30;99.90;;;;;;5093668;28;20552;-82
2021/10/07 07:38:30;;;;;;;522.10;486.30;;;12.20;99.90;;;;;;5093808;28;20548;-85
2021/10/07 07:40:57;;;;;;;497.37;466.30;;;12.40;99.90;;;;;;5093240;28;20943;-83
2021/10/07 07:43:24;;;;;;;507.33;473.70;;;12.40;99.90;;;;;;5093777;28;20457;-83
2021/10/07 07:45:53;;;;;;;505.93;473.27;;;12.50;99.90;;;;;;5092821;28;20457;-82
2021/10/07 07:48:20;;;;;;;466.67;438.47;;;12.50;99.90;;;;;;5093532;28;20458;-86
2021/10/07 07:50:47;;;;;;;446.40;420.60;;;12.60;99.90;;;;;;5093529;28;20453;-83
2021/10/07 07:53:14;;;;;;;448.30;422.90;;;12.60;99.90;;;;;;5090892;28;20493;-83
2021/10/07 07:55:42;;;;;;;459.83;432.37;;;12.80;99.90;;;;;;5092429;28;20960;-85
2021/10/07 07:58:11;;;;;;;396.20;374.93;;;12.90;99.90;;;;;;5092504;28;20514;-84
2021/10/07 08:00:38;;;;;;;376.70;356.10;;;13.00;99.90;;;;;;5090838;28;20462;-82
2021/10/07 08:03:05;;;;;;;351.10;332.60;;;13.20;99.90;;;;;;5092226;28;20457;-84
2021/10/07 08:05:33;;;;;;;312.40;295.23;;;13.30;99.90;;;;;;5092183;28;20450;-84
2021/10/07 08:08:00;;;;;;;226.87;213.97;;;13.60;99.90;;;;;;5092277;28;20541;-85
2021/10/07 08:10:27;;;;;;;144.23;135.93;;;13.80;99.90;;;;;;5091929;28;20462;-84
2021/10/07 08:12:55;;;;;;;108.53;101.63;;;14.20;99.90;;;;;;5091825;28;20553;-81
2021/10/07 08:15:23;;;;;;;77.33;71.63;;;14.40;99.90;;;;;;5090895;28;20462;-84
2021/10/07 08:17:49;;;;;;;77.97;71.47;;;14.70;99.90;;;;;;5091883;28;20540;-81
2021/10/07 08:20:17;;;;;;;67.93;62.90;;;14.40;99.90;;;;;;5091776;28;20460;-82
2021/10/07 08:22:46;;;;;;;51.47;47.03;;;14.50;99.90;;;;;;5091732;28;20538;-84
2021/10/07 08:25:13;;;;;;;47.60;43.80;;;14.40;97.70;;;;;;5091496;28;20546;-83
2021/10/07 08:27:40;;;;;;;45.03;40.70;;;14.50;98.80;;;;;;5091814;28;20492;-82
2021/10/07 08:30:11;;;;;;;38.00;33.33;;;14.70;96.40;;;;;;5090962;28;20549;-83
2021/10/07 08:32:38;;;;;;;35.50;31.90;;;14.70;97.80;;;;;;5091261;28;20481;-83
2021/10/07 08:35:07;;;;;;;30.93;27.70;;;14.90;97.60;;;;;;5091641;28;20457;-83
2021/10/07 08:37:34;;;;;;;26.90;22.10;;;15.10;98.10;;;;;;5091356;28;20494;-83
2021/10/07 08:40:01;;;;;;;33.07;29.63;;;15.20;95.10;;;;;;5091648;28;21038;-82
2021/10/07 08:42:30;;;;;;;28.60;23.43;;;15.20;95.60;;;;;;5091848;28;20482;-83
2021/10/07 08:44:57;;;;;;;32.23;22.40;;;15.30;92.20;;;;;;5091695;28;20459;-82
2021/10/07 08:47:29;;;;;;;33.67;28.40;;;15.60;92.10;;;;;;5092854;28;20460;-85
2021/10/07 08:49:56;;;;;;;21.83;16.73;;;15.90;91.30;;;;;;5092824;28;20521;-82
2021/10/07 08:52:23;;;;;;;21.00;15.00;;;16.20;87.60;;;;;;5093151;28;20454;-83
2021/10/07 08:54:50;;;;;;;27.23;18.23;;;16.50;81.60;;;;;;5096740;28;20576;-83
2021/10/07 08:57:18;;;;;;;19.60;13.47;;;16.80;75.80;;;;;;5096922;28;20456;-83
2021/10/07 08:59:45;;;;;;;19.73;13.80;;;17.50;79.60;;;;;;5095454;28;20579;-84
2021/10/07 09:02:26;;;;;;;20.40;13.77;;;18.10;71.90;;;;;;5096750;28;20487;-82
2021/10/07 09:04:54;;;;;;;22.83;13.90;;;18.50;60.50;;;;;;5096482;28;21091;-82
2021/10/07 09:07:22;;;;;;;21.03;13.70;;;18.60;61.50;;;;;;5096770;28;20551;-84
2021/10/07 09:09:49;;;;;;;21.83;15.10;;;19.00;56.00;;;;;;5096608;28;20459;-85
2021/10/07 09:12:18;;;;;;;19.30;13.40;;;19.50;57.10;;;;;;5096579;28;20452;-84
2021/10/07 09:14:48;;;;;;;22.10;15.33;;;20.40;60.80;;;;;;5095594;28;20822;-86
2021/10/07 09:17:17;;;;;;;19.50;13.20;;;21.10;48.20;;;;;;5096541;28;20513;-84
2021/10/07 09:19:46;;;;;;;23.20;14.60;;;21.80;46.00;;;;;;5096516;28;20464;-82
2021/10/07 09:22:16;;;;;;;16.70;13.10;;;22.20;41.60;;;;;;5096322;28;20522;-80
2021/10/07 09:24:45;;;;;;;20.27;12.10;;;22.20;37.40;;;;;;5096074;28;20517;-84
2021/10/07 09:27:15;;;;;;;17.30;12.27;;;22.00;37.20;;;;;;5096432;28;20556;-82
2021/10/07 09:29:50;;;;;;;17.00;12.83;;;22.40;33.30;;;;;;5094630;28;20939;-81
2021/10/07 09:32:26;;;;;;;18.30;13.90;;;22.50;31.30;;;;;;5096033;28;20538;-84
2021/10/07 09:34:55;;;;;;;18.00;12.47;;;22.30;28.70;;;;;;5096165;28;20473;-82
2021/10/07 09:37:35;;;;;;;18.00;12.27;;;22.30;28.70;;;;;;5096232;28;20549;-84
2021/10/07 09:40:13;;;;;;;15.73;10.03;;;22.30;31.20;;;;;;5096320;28;20449;-80
2021/10/07 09:42:49;;;;;;;17.87;11.30;;;22.00;27.20;;;;;;5096194;28;20480;-84
2021/10/07 09:45:19;;;;;;;14.23;9.47;;;21.40;28.10;;;;;;5094592;28;20520;-82
2021/10/07 09:47:50;;;;;;;14.13;9.73;;;21.90;29.30;;;;;;5095709;28;20511;-80
2021/10/07 09:50:24;;;;;;;14.00;9.47;;;22.00;28.50;;;;;;5096057;28;20453;-83
2021/10/07 09:52:53;;;;;;;13.27;9.93;;;22.30;28.70;;;;;;5095804;28;20471;-81
2021/10/07 09:55:23;;;;;;;14.30;9.70;;;23.10;26.10;;;;;;5095612;28;20540;-81
2021/10/07 09:58:07;;;;;;;12.70;9.87;;;23.60;23.60;;;;;;5095583;28;20453;-82
2021/10/07 10:00:36;;;;;;;12.57;8.77;;;24.00;25.30;;;;;;5094256;28;20477;-83
2021/10/07 10:03:06;;;;;;;18.10;9.30;;;23.10;21.90;;;;;;5095054;28;20941;-84
2021/10/07 10:05:36;;;;;;;16.50;11.17;;;23.10;20.70;;;;;;5095993;28;20520;-85
2021/10/07 10:08:07;;;;;;;17.13;9.90;;;22.70;21.60;;;;;;5095560;28;20458;-82
2021/10/07 10:10:35;;;;;;;13.37;9.63;;;22.90;20.60;;;;;;5095363;28;20458;-82
2021/10/07 10:13:04;;;;;;;14.13;9.27;;;22.70;19.50;;;;;;5095424;28;20546;-85
2021/10/07 10:15:33;;;;;;;15.13;10.93;;;23.70;17.70;;;;;;5094126;28;20501;-81
2021/10/07 10:18:01;;;;;;;17.03;13.03;;;23.10;20.30;;;;;;5095887;28;20514;-82
2021/10/07 10:20:29;;;;;;;19.90;13.53;;;21.60;23.30;;;;;;5095468;28;20511;-83
2021/10/07 10:23:02;;;;;;;15.50;12.80;;;21.50;28.90;;;;;;5095210;28;20464;-82
2021/10/07 10:25:31;;;;;;;22.97;14.50;;;21.20;29.00;;;;;;5095016;28;20516;-84
2021/10/07 10:28:03;;;;;;;20.43;13.40;;;20.90;29.70;;;;;;5095568;28;20846;-83
2021/10/07 10:30:32;;;;;;;20.63;14.10;;;20.30;29.20;;;;;;5093756;28;20564;-81
2021/10/07 10:33:01;;;;;;;21.00;14.80;;;20.70;28.80;;;;;;5094977;28;20557;-82
2021/10/07 10:35:37;;;;;;;17.00;12.07;;;21.20;27.10;;;;;;5094942;28;20452;-82
2021/10/07 10:38:11;;;;;;;15.77;12.63;;;22.00;25.70;;;;;;5095221;28;20453;-82
2021/10/07 10:40:39;;;;;;;16.93;11.57;;;22.30;25.00;;;;;;5094824;28;20488;-83
2021/10/07 10:43:26;;;;;;;14.23;10.40;;;21.80;23.90;;;;;;5095085;28;20459;-84
2021/10/07 10:46:12;;;;;;;21.40;12.13;;;21.30;24.20;;;;;;5093360;28;20447;-84
2021/10/07 10:49:02;;;;;;;21.00;13.10;;;20.70;26.40;;;;;;5094656;28;20968;-81
2021/10/07 10:51:36;;;;;;;15.07;10.90;;;20.40;26.10;;;;;;5094841;28;20534;-84
2021/10/07 10:54:15;;;;;;;15.20;10.60;;;20.70;27.60;;;;;;5094686;28;20455;-84
2021/10/07 10:57:00;;;;;;;18.27;12.27;;;20.80;27.60;;;;;;5094215;28;20459;-83
2021/10/07 10:59:30;;;;;;;19.00;11.67;;;21.20;24.00;;;;;;5093340;28;20487;-81
2021/10/07 11:02:26;;;;;;;15.10;10.47;;;21.30;23.30;;;;;;5095466;28;20453;-82
2021/10/07 11:04:55;;;;;;;15.23;12.60;;;22.50;21.00;;;;;;5094336;28;20813;-84
2021/10/07 11:07:25;;;;;;;17.47;12.20;;;23.00;21.90;;;;;;5094230;28;20956;-82
2021/10/07 11:10:00;;;;;;;17.37;12.97;;;24.00;20.10;;;;;;5094492;28;20446;-82
2021/10/07 11:12:33;;;;;;;9.57;5.77;;;23.90;19.90;;;;;;5094298;28;20463;-83
2021/10/07 11:15:00;;;;;;;11.07;6.87;;;24.10;18.20;;;;;;5092181;28;20489;-83
2021/10/07 11:17:31;;;;;;;17.77;7.67;;;24.10;17.10;;;;;;5093958;28;20891;-82
2021/10/07 11:19:58;;;;;;;11.17;7.30;;;24.30;16.90;;;;;;5094195;28;20481;-81
2021/10/07 11:22:26;;;;;;;17.00;8.30;;;24.30;15.30;;;;;;5094243;28;20481;-85
2021/10/07 11:24:58;;;;;;;13.97;8.50;;;24.50;16.80;;;;;;5094063;28;20505;-83
2021/10/07 11:27:41;;;;;;;18.80;8.00;;;24.40;15.40;;;;;;5093948;28;20457;-82
2021/10/07 11:30:14;;;;;;;11.40;7.60;;;24.50;15.40;;;;;;5092583;28;20487;-83
2021/10/07 11:32:42;;;;;;;14.53;8.70;;;23.80;14.30;;;;;;5093811;28;20505;-84
2021/10/07 11:35:11;;;;;;;14.27;8.93;;;24.00;15.10;;;;;;5093773;28;20450;-84
2021/10/07 11:37:57;;;;;;;17.60;9.60;;;24.60;12.20;;;;;;5094018;28;20537;-81
2021/10/07 11:40:41;;;;;;;19.97;10.20;;;23.40;14.60;;;;;;5093596;28;20830;-84
2021/10/07 11:43:10;;;;;;;14.30;8.23;;;23.70;16.70;;;;;;5093714;28;20472;-84
2021/10/07 11:45:41;;;;;;;13.87;8.70;;;23.40;15.80;;;;;;5092287;28;20907;-83
2021/10/07 11:48:09;;;;;;;16.07;8.97;;;23.40;14.60;;;;;;5093657;28;20954;-83
2021/10/07 11:50:40;;;;;;;14.30;8.03;;;23.60;14.80;;;;;;5093367;28;20544;-83
2021/10/07 11:53:08;;;;;;;15.83;8.47;;;24.40;13.30;;;;;;5093461;28;20488;-82
2021/10/07 11:55:42;;;;;;;15.33;9.43;;;24.40;11.40;;;;;;5093585;28;20477;-82
2021/10/07 11:58:10;;;;;;;18.50;8.83;;;25.00;10.30;;;;;;5093214;28;20543;-83
2021/10/07 12:00:48;;;;;;;13.00;8.30;;;25.00;9.70;;;;;;5092051;28;20481;-81
2021/10/07 12:03:28;;;;;;;15.90;9.87;;;26.10;8.00;;;;;;5093168;28;20450;-84
2021/10/07 12:05:59;;;;;;;13.33;9.50;;;26.10;7.10;;;;;;5093264;28;20505;-84
2021/10/07 12:08:28;;;;;;;13.00;7.70;;;25.40;6.30;;;;;;5093272;28;20826;-83
2021/10/07 12:11:02;;;;;;;11.03;7.80;;;26.00;8.60;;;;;;5093337;28;20937;-82
2021/10/07 12:13:30;;;;;;;10.27;7.40;;;26.20;6.80;;;;;;5090517;28;20506;-82
2021/10/07 12:16:00;;;;;;;10.70;7.73;;;26.30;3.70;;;;;;5091900;28;20461;-81
2021/10/07 12:18:28;;;;;;;10.40;7.37;;;26.60;3.80;;;;;;5093143;28;20472;-84
2021/10/07 12:21:10;;;;;;;10.90;6.93;;;26.10;1.50;;;;;;5093242;28;20537;-82
2021/10/07 12:23:51;;;;;;;11.40;6.37;;;26.40;1.00;;;;;;5093077;28;20457;-84
2021/10/07 12:26:38;;;;;;;9.43;6.90;;;25.60;1.00;;;;;;5092799;28;20449;-84
2021/10/07 12:29:09;;;;;;;14.83;8.10;;;26.00;3.10;;;;;;5091227;28;20507;-82
2021/10/07 12:31:37;;;;;;;10.87;6.77;;;26.30;1.00;;;;;;5092980;28;20477;-81
2021/10/07 12:34:07;;;;;;;10.03;7.63;;;25.60;1.00;;;;;;5092971;28;20479;-84